Time,TemperatureF,DewpointF,PressureIn,WindDirection,WindDirectionDegrees,WindSpeedMPH,WindSpeedGustMPH,Humidity,HourlyPrecipIn,Conditions,Clouds,dailyrainin,SoftwareType,DateUTC
2013-06-12 00:02:00,59.2,46.9,29.89,SW,223,2.0,2.0,64,0.00,,,0.01,meteohub,2013-06-12 07:02:00,
2013-06-12 00:07:00,59.0,46.0,29.89,SW,223,2.0,3.0,62,0.00,,,0.00,meteohub,2013-06-12 07:07:00,
2013-06-12 00:12:00,58.8,45.3,29.89,SW,223,2.0,3.0,61,0.00,,,0.00,meteohub,2013-06-12 07:12:00,
2013-06-12 00:17:00,58.6,45.7,29.89,SW,223,2.0,3.0,62,0.00,,,0.00,meteohub,2013-06-12 07:17:00,
2013-06-12 00:22:00,58.5,45.5,29.89,SW,223,1.0,3.0,62,0.00,,,0.00,meteohub,2013-06-12 07:22:00,
2013-06-12 00:27:00,58.3,45.3,29.89,SW,223,2.0,3.0,62,0.00,,,0.00,meteohub,2013-06-12 07:27:00,
2013-06-12 00:32:00,58.1,45.1,29.89,SW,223,0.0,3.0,62,0.00,,,0.00,meteohub,2013-06-12 07:32:00,
2013-06-12 00:37:00,57.9,45.0,29.89,SW,223,0.0,3.0,62,0.00,,,0.00,meteohub,2013-06-12 07:37:00,
2013-06-12 00:42:00,57.7,45.3,29.89,SW,223,0.0,3.0,63,0.00,,,0.00,meteohub,2013-06-12 07:42:00,
2013-06-12 00:48:00,57.6,45.1,29.89,SW,223,0.0,2.0,63,0.00,,,0.00,meteohub,2013-06-12 07:48:00,
2013-06-12 00:52:00,57.4,45.7,29.89,SW,223,0.0,2.0,65,0.00,,,0.00,meteohub,2013-06-12 07:52:00,
2013-06-12 00:58:00,57.0,45.3,29.89,SW,223,0.0,2.0,65,0.00,,,0.00,meteohub,2013-06-12 07:58:00,
2013-06-12 01:03:00,56.8,45.7,29.89,SW,223,0.0,2.0,66,0.00,,,0.00,meteohub,2013-06-12 08:03:00,
2013-06-12 01:08:00,56.5,45.3,29.89,SW,223,0.0,1.0,66,0.00,,,0.00,meteohub,2013-06-12 08:08:00,
2013-06-12 01:13:00,56.1,45.0,29.89,SW,223,0.0,2.0,66,0.00,,,0.00,meteohub,2013-06-12 08:13:00,
2013-06-12 01:18:00,55.9,44.8,29.89,SW,223,0.0,2.0,66,0.00,,,0.00,meteohub,2013-06-12 08:18:00,
2013-06-12 01:23:00,55.8,45.3,29.89,SW,223,0.0,2.0,68,0.00,,,0.00,meteohub,2013-06-12 08:23:00,
2013-06-12 01:28:00,55.0,45.5,29.89,SW,223,1.0,0.0,70,0.00,,,0.00,meteohub,2013-06-12 08:28:00,
2013-06-12 01:33:00,54.1,45.0,29.89,SW,223,0.0,2.0,71,0.00,,,0.00,meteohub,2013-06-12 08:33:00,
2013-06-12 01:38:00,53.6,44.8,29.89,SW,223,0.0,2.0,72,0.00,,,0.00,meteohub,2013-06-12 08:38:00,
2013-06-12 01:43:00,53.2,44.4,29.89,SW,223,0.0,2.0,72,0.00,,,0.00,meteohub,2013-06-12 08:43:00,
2013-06-12 01:48:00,53.1,44.6,29.89,SW,223,0.0,1.0,73,0.00,,,0.00,meteohub,2013-06-12 08:48:00,
2013-06-12 01:53:00,52.5,44.4,29.89,SW,223,0.0,0.0,74,0.00,,,0.00,meteohub,2013-06-12 08:53:00,
2013-06-12 01:58:00,52.2,44.4,29.89,SW,223,0.0,0.0,75,0.00,,,0.00,meteohub,2013-06-12 08:58:00,
2013-06-12 02:03:00,51.6,44.2,29.88,SW,223,0.0,0.0,76,0.00,,,0.00,meteohub,2013-06-12 09:03:00,
2013-06-12 02:08:00,51.4,45.1,29.88,SW,223,0.0,0.0,79,0.00,,,0.00,meteohub,2013-06-12 09:08:00,
2013-06-12 02:13:00,51.1,45.9,29.88,SW,223,0.0,0.0,82,0.00,,,0.00,meteohub,2013-06-12 09:13:00,
2013-06-12 02:18:00,50.5,45.3,29.88,SW,223,0.0,0.0,82,0.00,,,0.00,meteohub,2013-06-12 09:18:00,
2013-06-12 02:23:00,50.2,44.6,29.88,SW,223,0.0,0.0,81,0.00,,,0.00,meteohub,2013-06-12 09:23:00,
2013-06-12 02:28:00,49.8,44.6,29.88,SW,223,0.0,0.0,82,0.00,,,0.00,meteohub,2013-06-12 09:28:00,
2013-06-12 02:33:00,49.5,44.8,29.88,SW,223,0.0,0.0,84,0.00,,,0.00,meteohub,2013-06-12 09:33:00,
2013-06-12 02:38:00,49.3,44.1,29.88,SW,223,0.0,1.0,82,0.00,,,0.00,meteohub,2013-06-12 09:38:00,
2013-06-12 02:43:00,49.3,44.4,29.88,SW,223,0.0,1.0,83,0.00,,,0.00,meteohub,2013-06-12 09:43:00,
2013-06-12 02:48:00,48.9,44.1,29.88,SW,223,0.0,1.0,83,0.00,,,0.00,meteohub,2013-06-12 09:48:00,
2013-06-12 02:53:00,48.7,43.9,29.88,SW,223,0.0,0.0,83,0.00,,,0.00,meteohub,2013-06-12 09:53:00,
2013-06-12 02:58:00,48.6,43.7,29.88,SW,223,0.0,0.0,83,0.00,,,0.00,meteohub,2013-06-12 09:58:00,
2013-06-12 03:03:00,48.2,43.3,29.88,SW,223,0.0,0.0,83,0.00,,,0.00,meteohub,2013-06-12 10:03:00,
2013-06-12 03:08:00,47.8,43.2,29.88,SW,223,0.0,0.0,84,0.00,,,0.00,meteohub,2013-06-12 10:08:00,
2013-06-12 03:13:00,47.5,43.2,29.88,SW,223,1.0,2.0,85,0.00,,,0.00,meteohub,2013-06-12 10:13:00,
2013-06-12 03:18:00,47.3,43.7,29.88,SW,223,0.0,2.0,87,0.00,,,0.00,meteohub,2013-06-12 10:18:00,
2013-06-12 03:23:00,47.1,43.2,29.88,SW,223,0.0,2.0,86,0.00,,,0.00,meteohub,2013-06-12 10:23:00,
2013-06-12 03:28:00,46.9,43.0,29.88,SW,223,0.0,2.0,86,0.00,,,0.00,meteohub,2013-06-12 10:28:00,
2013-06-12 03:33:00,46.9,43.3,29.88,SW,223,0.0,0.0,87,0.00,,,0.00,meteohub,2013-06-12 10:33:00,
2013-06-12 03:38:00,46.8,43.3,29.88,SW,223,0.0,0.0,88,0.00,,,0.00,meteohub,2013-06-12 10:38:00,
2013-06-12 03:43:00,46.6,43.2,29.88,SW,223,0.0,0.0,88,0.00,,,0.00,meteohub,2013-06-12 10:43:00,
2013-06-12 03:48:00,46.2,42.8,29.88,SW,223,0.0,0.0,88,0.00,,,0.00,meteohub,2013-06-12 10:48:00,
2013-06-12 03:53:00,46.2,43.2,29.88,SW,223,0.0,0.0,89,0.00,,,0.00,meteohub,2013-06-12 10:53:00,
2013-06-12 03:58:00,46.0,43.0,29.88,SW,223,0.0,0.0,89,0.00,,,0.00,meteohub,2013-06-12 10:58:00,
2013-06-12 04:03:00,45.9,42.8,29.88,SW,223,0.0,0.0,89,0.00,,,0.00,meteohub,2013-06-12 11:03:00,
2013-06-12 04:08:00,46.0,43.5,29.89,SW,223,0.0,0.0,91,0.00,,,0.00,meteohub,2013-06-12 11:08:00,
2013-06-12 04:13:00,46.2,44.1,29.88,SW,223,0.0,0.0,92,0.00,,,0.00,meteohub,2013-06-12 11:13:00,
2013-06-12 04:18:00,46.0,43.5,29.89,SW,223,0.0,0.0,91,0.00,,,0.00,meteohub,2013-06-12 11:18:00,
2013-06-12 04:23:00,45.9,43.3,29.88,SW,223,0.0,0.0,91,0.00,,,0.00,meteohub,2013-06-12 11:23:00,
2013-06-12 04:28:00,45.7,43.2,29.88,SW,223,1.0,1.0,91,0.00,,,0.00,meteohub,2013-06-12 11:28:00,
2013-06-12 04:33:00,45.7,43.5,29.89,SW,223,1.0,1.0,92,0.00,,,0.00,meteohub,2013-06-12 11:33:00,
2013-06-12 04:38:00,45.7,43.5,29.89,SW,223,0.0,2.0,92,0.00,,,0.00,meteohub,2013-06-12 11:38:00,
2013-06-12 04:43:00,45.7,43.5,29.89,SW,223,0.0,2.0,92,0.00,,,0.00,meteohub,2013-06-12 11:43:00,
2013-06-12 04:48:00,45.9,43.9,29.88,SW,223,0.0,2.0,93,0.00,,,0.00,meteohub,2013-06-12 11:48:00,
2013-06-12 04:53:00,46.0,44.4,29.89,SW,223,0.0,2.0,94,0.00,,,0.00,meteohub,2013-06-12 11:53:00,
2013-06-12 04:58:00,46.2,44.6,29.89,SW,223,1.0,2.0,94,0.00,,,0.00,meteohub,2013-06-12 11:58:00,
2013-06-12 05:03:00,46.2,44.6,29.89,SW,223,2.0,2.0,94,0.00,,,0.00,meteohub,2013-06-12 12:03:00,
2013-06-12 05:08:00,46.0,44.1,29.89,SW,223,0.0,2.0,93,0.00,,,0.00,meteohub,2013-06-12 12:08:00,
2013-06-12 05:13:00,46.0,44.1,29.89,SW,223,0.0,2.0,93,0.00,,,0.00,meteohub,2013-06-12 12:13:00,
2013-06-12 05:19:00,45.9,43.9,29.89,SW,223,0.0,2.0,93,0.00,,,0.00,meteohub,2013-06-12 12:19:00,
2013-06-12 05:24:00,45.7,43.5,29.89,SW,223,0.0,2.0,92,0.00,,,0.00,meteohub,2013-06-12 12:24:00,
2013-06-12 05:29:00,45.3,43.2,29.90,SW,223,0.0,2.0,92,0.00,,,0.00,meteohub,2013-06-12 12:29:00,
2013-06-12 05:34:00,45.3,43.2,29.90,SW,223,0.0,2.0,92,0.00,,,0.00,meteohub,2013-06-12 12:34:00,
2013-06-12 05:39:00,45.3,43.3,29.89,SW,223,0.0,1.0,93,0.00,,,0.00,meteohub,2013-06-12 12:39:00,
2013-06-12 05:44:00,45.1,43.2,29.90,ENE,76,0.0,1.0,93,0.00,,,0.00,meteohub,2013-06-12 12:44:00,
2013-06-12 05:49:00,45.0,43.0,29.89,ENE,76,0.0,1.0,93,0.00,,,0.00,meteohub,2013-06-12 12:49:00,
2013-06-12 05:54:00,45.0,43.0,29.90,ENE,74,2.0,2.0,93,0.00,,,0.00,meteohub,2013-06-12 12:54:00,
2013-06-12 05:59:00,45.3,44.1,29.90,NE,43,2.0,4.0,95,0.00,,,0.00,meteohub,2013-06-12 12:59:00,
2013-06-12 06:04:00,46.2,44.8,29.90,NE,55,1.0,4.0,95,0.00,,,0.00,meteohub,2013-06-12 13:04:00,
2013-06-12 06:09:00,47.7,46.2,29.90,NE,44,3.0,4.0,95,0.00,,,0.00,meteohub,2013-06-12 13:09:00,
2013-06-12 06:14:00,48.9,46.4,29.90,NE,49,2.0,4.0,91,0.00,,,0.00,meteohub,2013-06-12 13:14:00,
2013-06-12 06:19:00,50.5,45.9,29.90,NE,50,0.0,6.0,84,0.00,,,0.00,meteohub,2013-06-12 13:19:00,
2013-06-12 06:24:00,52.2,45.9,29.90,NE,55,3.0,6.0,79,0.00,,,0.00,meteohub,2013-06-12 13:24:00,
2013-06-12 06:29:00,53.4,45.7,29.90,ENE,58,2.0,6.0,75,0.00,,,0.00,meteohub,2013-06-12 13:29:00,
2013-06-12 06:34:00,54.1,46.4,29.90,ENE,58,1.0,6.0,75,0.00,,,0.00,meteohub,2013-06-12 13:34:00,
2013-06-12 06:39:00,54.7,45.5,29.90,ENE,58,1.0,6.0,71,0.00,,,0.00,meteohub,2013-06-12 13:39:00,
2013-06-12 06:44:00,55.2,46.4,29.91,NE,53,1.0,4.0,72,0.00,,,0.00,meteohub,2013-06-12 13:44:00,
2013-06-12 06:49:00,55.6,45.5,29.91,NE,53,1.0,4.0,69,0.00,,,0.00,meteohub,2013-06-12 13:49:00,
2013-06-12 06:54:00,55.9,47.1,29.91,NNE,32,1.0,4.0,72,0.00,,,0.00,meteohub,2013-06-12 13:54:00,
2013-06-12 06:59:00,55.9,46.8,29.91,NE,35,1.0,4.0,71,0.00,,,0.00,meteohub,2013-06-12 13:59:00,
2013-06-12 07:04:00,56.3,48.2,29.91,NE,35,0.0,3.0,74,0.00,,,0.00,meteohub,2013-06-12 14:04:00,
2013-06-12 07:09:00,56.3,48.6,29.91,NE,35,0.0,2.0,75,0.00,,,0.00,meteohub,2013-06-12 14:09:00,
2013-06-12 07:14:00,56.1,47.3,29.91,NE,35,1.0,2.0,72,0.00,,,0.00,meteohub,2013-06-12 14:14:00,
2013-06-12 07:19:00,56.1,48.0,29.91,NE,35,0.0,1.0,74,0.00,,,0.00,meteohub,2013-06-12 14:19:00,
2013-06-12 07:24:00,56.1,48.4,29.91,NE,35,0.0,1.0,75,0.00,,,0.00,meteohub,2013-06-12 14:24:00,
2013-06-12 07:29:00,56.1,48.7,29.91,NE,35,0.0,1.0,76,0.00,,,0.00,meteohub,2013-06-12 14:29:00,
2013-06-12 07:34:00,56.1,47.7,29.91,NE,35,0.0,2.0,73,0.00,,,0.00,meteohub,2013-06-12 14:34:00,
2013-06-12 07:39:00,56.1,48.0,29.91,NE,35,0.0,2.0,74,0.00,,,0.00,meteohub,2013-06-12 14:39:00,
2013-06-12 07:44:00,56.3,47.8,29.92,NE,35,0.0,2.0,73,0.00,,,0.00,meteohub,2013-06-12 14:44:00,
2013-06-12 07:49:00,56.7,48.4,29.92,NE,35,0.0,1.0,74,0.00,,,0.00,meteohub,2013-06-12 14:49:00,
2013-06-12 07:54:00,56.8,48.2,29.92,NE,35,0.0,1.0,73,0.00,,,0.00,meteohub,2013-06-12 14:54:00,
2013-06-12 07:59:00,57.0,48.4,29.92,NE,35,0.0,1.0,73,0.00,,,0.00,meteohub,2013-06-12 14:59:00,
2013-06-12 08:04:00,57.6,48.6,29.92,NE,35,0.0,1.0,72,0.00,,,0.00,meteohub,2013-06-12 15:04:00,
2013-06-12 08:09:00,58.1,49.1,29.92,NE,35,0.0,1.0,72,0.00,,,0.00,meteohub,2013-06-12 15:09:00,
2013-06-12 08:14:00,58.6,49.3,29.92,NE,35,0.0,1.0,71,0.00,,,0.00,meteohub,2013-06-12 15:14:00,
2013-06-12 08:19:00,59.4,47.7,29.92,NE,40,1.0,1.0,65,0.00,,,0.00,meteohub,2013-06-12 15:19:00,
2013-06-12 08:24:00,61.0,47.8,29.92,NE,42,3.0,4.0,62,0.00,,,0.00,meteohub,2013-06-12 15:24:00,
2013-06-12 08:29:00,62.4,46.9,29.92,NNW,348,3.0,7.0,57,0.00,,,0.00,meteohub,2013-06-12 15:29:00,
2013-06-12 08:34:00,63.7,45.7,29.92,NNE,30,0.0,7.0,52,0.00,,,0.00,meteohub,2013-06-12 15:34:00,
2013-06-12 08:39:00,64.9,45.9,29.92,NE,39,4.0,7.0,50,0.00,,,0.00,meteohub,2013-06-12 15:39:00,
2013-06-12 08:44:00,65.7,45.0,29.93,NW,315,3.0,6.0,47,0.00,,,0.00,meteohub,2013-06-12 15:44:00,
2013-06-12 08:49:00,66.2,44.8,29.93,NNW,344,2.0,7.0,46,0.00,,,0.00,meteohub,2013-06-12 15:49:00,
2013-06-12 08:54:00,66.7,44.8,29.93,NE,47,5.0,7.0,45,0.00,,,0.00,meteohub,2013-06-12 15:54:00,
2013-06-12 08:59:00,67.1,44.4,29.93,North,0,5.0,10.0,44,0.00,,,0.00,meteohub,2013-06-12 15:59:00,
2013-06-12 09:04:00,67.3,45.1,29.93,NW,325,4.0,10.0,45,0.00,,,0.00,meteohub,2013-06-12 16:04:00,
2013-06-12 09:09:00,67.6,45.0,29.93,NE,42,4.0,10.0,44,0.00,,,0.00,meteohub,2013-06-12 16:09:00,
2013-06-12 09:14:00,67.8,46.2,29.93,NNW,343,3.0,8.0,46,0.00,,,0.00,meteohub,2013-06-12 16:14:00,
2013-06-12 09:19:00,68.4,46.2,29.93,NE,37,3.0,8.0,45,0.00,,,0.00,meteohub,2013-06-12 16:19:00,
2013-06-12 09:24:00,68.5,45.1,29.93,NE,34,2.0,7.0,43,0.00,,,0.00,meteohub,2013-06-12 16:24:00,
2013-06-12 09:29:00,69.1,45.7,29.93,NNE,32,2.0,7.0,43,0.00,,,0.00,meteohub,2013-06-12 16:29:00,
2013-06-12 09:34:00,69.3,50.4,29.93,SSE,153,1.0,6.0,51,0.00,,,0.00,meteohub,2013-06-12 16:34:00,
2013-06-12 09:39:00,69.3,51.4,29.93,SSE,165,4.0,5.0,53,0.00,,,0.00,meteohub,2013-06-12 16:39:00,
2013-06-12 09:44:00,69.1,51.8,29.93,South,183,2.0,5.0,54,0.00,,,0.00,meteohub,2013-06-12 16:44:00,
2013-06-12 09:49:00,68.4,51.1,29.93,South,186,4.0,5.0,54,0.00,,,0.00,meteohub,2013-06-12 16:49:00,
2013-06-12 09:54:00,68.2,51.4,29.94,South,186,5.0,5.0,55,0.00,,,0.00,meteohub,2013-06-12 16:54:00,
2013-06-12 09:59:00,67.5,50.7,29.94,South,185,5.0,6.0,55,0.00,,,0.00,meteohub,2013-06-12 16:59:00,
2013-06-12 10:04:00,67.1,50.9,29.94,South,185,5.0,6.0,56,0.00,,,0.00,meteohub,2013-06-12 17:04:00,
2013-06-12 10:09:00,66.9,50.2,29.94,South,179,4.0,7.0,55,0.00,,,0.00,meteohub,2013-06-12 17:09:00,
2013-06-12 10:14:00,67.1,50.4,29.94,South,178,3.0,7.0,55,0.00,,,0.00,meteohub,2013-06-12 17:14:00,
2013-06-12 10:19:00,67.5,50.7,29.94,SSW,209,4.0,7.0,55,0.00,,,0.00,meteohub,2013-06-12 17:19:00,
2013-06-12 10:24:00,67.8,50.0,29.94,South,188,6.0,7.0,53,0.00,,,0.00,meteohub,2013-06-12 17:24:00,
2013-06-12 10:29:00,67.6,49.5,29.94,South,190,3.0,7.0,52,0.00,,,0.00,meteohub,2013-06-12 17:29:00,
2013-06-12 10:34:00,68.2,49.8,29.94,SW,224,4.0,8.0,52,0.00,,,0.00,meteohub,2013-06-12 17:34:00,
2013-06-12 10:39:00,68.4,48.9,29.94,SSE,160,6.0,8.0,50,0.00,,,0.00,meteohub,2013-06-12 17:39:00,
2013-06-12 10:44:00,68.7,49.3,29.94,South,191,2.0,8.0,50,0.00,,,0.00,meteohub,2013-06-12 17:44:00,
2013-06-12 10:49:00,68.9,50.0,29.94,South,187,1.0,7.0,51,0.00,,,0.00,meteohub,2013-06-12 17:49:00,
2013-06-12 10:54:00,69.3,49.8,29.94,South,171,1.0,8.0,50,0.00,,,0.00,meteohub,2013-06-12 17:54:00,
2013-06-12 10:59:00,69.8,48.7,29.94,SW,219,6.0,8.0,47,0.00,,,0.00,meteohub,2013-06-12 17:59:00,
2013-06-12 11:04:00,70.3,48.0,29.94,SSW,209,2.0,8.0,45,0.00,,,0.00,meteohub,2013-06-12 18:04:00,
2013-06-12 11:09:00,70.5,48.2,29.94,WSW,253,6.0,8.0,45,0.00,,,0.00,meteohub,2013-06-12 18:09:00,
2013-06-12 11:14:00,70.9,48.6,29.94,South,185,3.0,8.0,45,0.00,,,0.00,meteohub,2013-06-12 18:14:00,
2013-06-12 11:19:00,71.2,47.7,29.94,SW,232,2.0,8.0,43,0.00,,,0.00,meteohub,2013-06-12 18:19:00,
2013-06-12 11:24:00,71.6,47.8,29.94,SSW,199,2.0,8.0,43,0.00,,,0.00,meteohub,2013-06-12 18:24:00,
2013-06-12 11:29:00,71.8,47.5,29.95,SSW,197,2.0,9.0,42,0.00,,,0.00,meteohub,2013-06-12 18:29:00,
2013-06-12 11:34:00,72.1,47.8,29.94,SW,219,6.0,9.0,42,0.00,,,0.00,meteohub,2013-06-12 18:34:00,
2013-06-12 11:40:00,72.3,46.6,29.95,SSW,211,2.0,9.0,40,0.00,,,0.00,meteohub,2013-06-12 18:40:00,
2013-06-12 11:45:00,72.9,46.4,29.95,WSW,252,4.0,8.0,39,0.00,,,0.00,meteohub,2013-06-12 18:45:00,
2013-06-12 11:49:00,73.2,46.0,29.95,South,182,5.0,8.0,38,0.00,,,0.00,meteohub,2013-06-12 18:49:00,
2013-06-12 11:55:00,73.6,47.1,29.94,SSW,209,5.0,8.0,39,0.00,,,0.00,meteohub,2013-06-12 18:55:00,
2013-06-12 12:00:00,73.8,48.6,29.94,West,269,7.0,8.0,41,0.00,,,0.00,meteohub,2013-06-12 19:00:00,
2013-06-12 12:05:00,73.9,48.7,29.94,West,274,5.0,9.0,41,0.00,,,0.00,meteohub,2013-06-12 19:05:00,
2013-06-12 12:10:00,73.9,50.0,29.94,WSW,254,7.0,10.0,43,0.00,,,0.00,meteohub,2013-06-12 19:10:00,
2013-06-12 12:15:00,73.8,50.5,29.94,SW,219,4.0,10.0,44,0.00,,,0.00,meteohub,2013-06-12 19:15:00,
2013-06-12 12:20:00,73.8,50.5,29.94,West,267,6.0,10.0,44,0.00,,,0.00,meteohub,2013-06-12 19:20:00,
2013-06-12 12:25:00,73.9,50.7,29.94,SW,232,6.0,10.0,44,0.00,,,0.00,meteohub,2013-06-12 19:25:00,
2013-06-12 12:30:00,74.1,50.2,29.94,WSW,242,4.0,10.0,43,0.00,,,0.00,meteohub,2013-06-12 19:30:00,
2013-06-12 12:35:00,74.1,48.9,29.94,WSW,254,6.0,9.0,41,0.00,,,0.00,meteohub,2013-06-12 19:35:00,
2013-06-12 12:40:00,74.1,48.2,29.94,SW,236,6.0,9.0,40,0.00,,,0.00,meteohub,2013-06-12 19:40:00,
2013-06-12 12:45:00,74.1,48.2,29.94,WSW,251,8.0,9.0,40,0.00,,,0.00,meteohub,2013-06-12 19:45:00,
2013-06-12 12:50:00,74.3,47.7,29.94,SW,223,3.0,10.0,39,0.00,,,0.00,meteohub,2013-06-12 19:50:00,
2013-06-12 12:55:00,74.7,47.3,29.94,WSW,257,6.0,10.0,38,0.00,,,0.00,meteohub,2013-06-12 19:55:00,
2013-06-12 13:00:00,74.7,48.7,29.94,SSW,201,4.0,10.0,40,0.00,,,0.00,meteohub,2013-06-12 20:00:00,
2013-06-12 13:05:00,75.4,47.3,29.94,West,260,4.0,10.0,37,0.00,,,0.00,meteohub,2013-06-12 20:05:00,
2013-06-12 13:10:00,75.7,46.9,29.94,SW,220,4.0,10.0,36,0.00,,,0.00,meteohub,2013-06-12 20:10:00,
2013-06-12 13:15:00,76.5,47.5,29.93,SW,227,5.0,10.0,36,0.00,,,0.00,meteohub,2013-06-12 20:15:00,
2013-06-12 13:20:00,76.5,47.5,29.93,SW,226,3.0,10.0,36,0.00,,,0.00,meteohub,2013-06-12 20:20:00,
2013-06-12 13:25:00,76.5,46.8,29.94,WSW,243,4.0,10.0,35,0.00,,,0.00,meteohub,2013-06-12 20:25:00,
2013-06-12 13:30:00,76.6,46.9,29.94,WSW,242,4.0,11.0,35,0.00,,,0.00,meteohub,2013-06-12 20:30:00,
2013-06-12 13:35:00,77.2,46.6,29.93,West,264,7.0,11.0,34,0.00,,,0.00,meteohub,2013-06-12 20:35:00,
2013-06-12 13:40:00,77.4,46.0,29.93,SW,220,6.0,11.0,33,0.00,,,0.00,meteohub,2013-06-12 20:40:00,
2013-06-12 13:45:00,77.5,45.3,29.93,WSW,244,5.0,13.0,32,0.00,,,0.00,meteohub,2013-06-12 20:45:00,
2013-06-12 13:50:00,77.7,45.5,29.93,SSW,204,4.0,13.0,32,0.00,,,0.00,meteohub,2013-06-12 20:50:00,
2013-06-12 13:55:00,77.7,44.6,29.93,WSW,242,8.0,13.0,31,0.00,,,0.00,meteohub,2013-06-12 20:55:00,
2013-06-12 14:00:00,77.7,45.5,29.93,SW,230,5.0,11.0,32,0.00,,,0.00,meteohub,2013-06-12 21:00:00,
2013-06-12 14:05:00,78.1,45.9,29.92,WSW,258,9.0,11.0,32,0.00,,,0.00,meteohub,2013-06-12 21:05:00,
2013-06-12 14:10:00,78.1,45.0,29.92,SW,229,9.0,11.0,31,0.00,,,0.00,meteohub,2013-06-12 21:10:00,
2013-06-12 14:15:00,78.4,46.2,29.92,SW,229,5.0,11.0,32,0.00,,,0.00,meteohub,2013-06-12 21:15:00,
2013-06-12 14:20:00,78.4,44.4,29.92,WSW,238,6.0,11.0,30,0.00,,,0.00,meteohub,2013-06-12 21:20:00,
2013-06-12 14:25:00,78.8,45.7,29.92,West,280,6.0,11.0,31,0.00,,,0.00,meteohub,2013-06-12 21:25:00,
2013-06-12 14:30:00,79.0,45.0,29.92,SSW,207,4.0,12.0,30,0.00,,,0.00,meteohub,2013-06-12 21:30:00,
2013-06-12 14:35:00,79.2,44.2,29.92,WSW,240,5.0,12.0,29,0.00,,,0.00,meteohub,2013-06-12 21:35:00,
2013-06-12 14:40:00,79.2,43.2,29.92,SW,236,3.0,12.0,28,0.00,,,0.00,meteohub,2013-06-12 21:40:00,
2013-06-12 14:45:00,79.3,43.3,29.92,WSW,247,6.0,12.0,28,0.00,,,0.00,meteohub,2013-06-12 21:45:00,
2013-06-12 14:50:00,79.3,42.4,29.92,WSW,240,9.0,14.0,27,0.00,,,0.00,meteohub,2013-06-12 21:50:00,
2013-06-12 14:55:00,79.5,40.6,29.92,SW,215,7.0,14.0,25,0.00,,,0.00,meteohub,2013-06-12 21:55:00,
2013-06-12 15:00:00,79.5,42.6,29.92,SSW,207,7.0,14.0,27,0.00,,,0.00,meteohub,2013-06-12 22:00:00,
2013-06-12 15:05:00,79.3,41.5,29.91,SW,215,5.0,12.0,26,0.00,,,0.00,meteohub,2013-06-12 22:05:00,
2013-06-12 15:10:00,79.5,40.6,29.91,WSW,252,4.0,12.0,25,0.00,,,0.00,meteohub,2013-06-12 22:10:00,
2013-06-12 15:15:00,80.1,42.1,29.91,SW,217,11.0,12.0,26,0.00,,,0.00,meteohub,2013-06-12 22:15:00,
2013-06-12 15:20:00,79.9,39.9,29.91,SSW,206,5.0,13.0,24,0.00,,,0.00,meteohub,2013-06-12 22:20:00,
2013-06-12 15:25:00,79.5,40.6,29.91,WSW,251,3.0,13.0,25,0.00,,,0.00,meteohub,2013-06-12 22:25:00,
2013-06-12 15:30:00,79.7,40.8,29.91,WSW,247,7.0,13.0,25,0.00,,,0.00,meteohub,2013-06-12 22:30:00,
2013-06-12 15:35:00,80.1,42.1,29.91,South,187,7.0,14.0,26,0.00,,,0.00,meteohub,2013-06-12 22:35:00,
2013-06-12 15:40:00,80.4,39.2,29.91,SSW,213,2.0,14.0,23,0.00,,,0.00,meteohub,2013-06-12 22:40:00,
2013-06-12 15:45:00,80.4,35.6,29.91,SW,219,3.0,14.0,20,0.00,,,0.00,meteohub,2013-06-12 22:45:00,
2013-06-12 15:50:00,80.4,36.9,29.91,WSW,239,5.0,14.0,21,0.00,,,0.00,meteohub,2013-06-12 22:50:00,
2013-06-12 15:55:00,80.4,36.9,29.91,South,180,8.0,12.0,21,0.00,,,0.00,meteohub,2013-06-12 22:55:00,
2013-06-12 16:00:00,80.2,37.9,29.91,WNW,285,5.0,12.0,22,0.00,,,0.00,meteohub,2013-06-12 23:00:00,
2013-06-12 16:05:00,80.2,36.7,29.91,West,277,11.0,12.0,21,0.00,,,0.00,meteohub,2013-06-12 23:05:00,
2013-06-12 16:10:00,80.1,37.8,29.91,West,274,5.0,12.0,22,0.00,,,0.00,meteohub,2013-06-12 23:10:00,
2013-06-12 16:15:00,79.9,37.6,29.91,West,274,8.0,13.0,22,0.00,,,0.00,meteohub,2013-06-12 23:15:00,
2013-06-12 16:20:00,79.7,37.6,29.91,SSW,201,7.0,14.0,22,0.00,,,0.00,meteohub,2013-06-12 23:20:00,
2013-06-12 16:25:00,79.7,37.6,29.91,WSW,240,10.0,14.0,22,0.00,,,0.00,meteohub,2013-06-12 23:25:00,
2013-06-12 16:30:00,79.5,37.4,29.91,SSW,209,5.0,14.0,22,0.00,,,0.00,meteohub,2013-06-12 23:30:00,
2013-06-12 16:35:00,79.9,37.6,29.91,WNW,283,4.0,14.0,22,0.00,,,0.00,meteohub,2013-06-12 23:35:00,
2013-06-12 16:40:00,80.1,37.8,29.91,SSW,205,4.0,12.0,22,0.00,,,0.00,meteohub,2013-06-12 23:40:00,
2013-06-12 16:45:00,80.2,39.0,29.91,WSW,248,3.0,12.0,23,0.00,,,0.00,meteohub,2013-06-12 23:45:00,
2013-06-12 16:50:00,80.1,38.8,29.91,SW,217,8.0,12.0,23,0.00,,,0.00,meteohub,2013-06-12 23:50:00,
2013-06-12 16:55:00,79.5,39.6,29.91,WSW,243,7.0,14.0,24,0.00,,,0.00,meteohub,2013-06-12 23:55:00,
2013-06-12 17:00:00,79.2,40.3,29.91,SSW,200,8.0,14.0,25,0.00,,,0.00,meteohub,2013-06-13 00:00:00,
2013-06-12 17:05:00,79.0,41.2,29.91,WSW,252,7.0,14.0,26,0.00,,,0.00,meteohub,2013-06-13 00:05:00,
2013-06-12 17:10:00,79.0,40.1,29.91,SW,216,7.0,13.0,25,0.00,,,0.00,meteohub,2013-06-13 00:10:00,
2013-06-12 17:15:00,78.6,39.9,29.91,WSW,248,8.0,14.0,25,0.00,,,0.00,meteohub,2013-06-13 00:15:00,
2013-06-12 17:20:00,78.3,40.6,29.91,NW,306,6.0,14.0,26,0.00,,,0.00,meteohub,2013-06-13 00:20:00,
2013-06-12 17:25:00,78.1,40.5,29.91,WSW,242,8.0,14.0,26,0.00,,,0.00,meteohub,2013-06-13 00:25:00,
2013-06-12 17:30:00,77.7,41.0,29.91,WNW,296,6.0,13.0,27,0.00,,,0.00,meteohub,2013-06-13 00:30:00,
2013-06-12 17:35:00,77.4,42.6,29.90,SW,218,6.0,15.0,29,0.00,,,0.00,meteohub,2013-06-13 00:35:00,
2013-06-12 17:40:00,77.2,43.3,29.90,West,280,6.0,15.0,30,0.00,,,0.00,meteohub,2013-06-13 00:40:00,
2013-06-12 17:45:00,76.6,42.8,29.90,WSW,249,8.0,15.0,30,0.00,,,0.00,meteohub,2013-06-13 00:45:00,
2013-06-12 17:50:00,76.3,43.3,29.90,SW,221,5.0,17.0,31,0.00,,,0.00,meteohub,2013-06-13 00:50:00,
2013-06-12 17:55:00,75.9,43.2,29.90,WSW,252,11.0,17.0,31,0.00,,,0.00,meteohub,2013-06-13 00:55:00,
2013-06-12 18:00:00,75.6,43.7,29.90,South,184,5.0,17.0,32,0.00,,,0.00,meteohub,2013-06-13 01:00:00,
2013-06-12 18:05:00,75.2,43.3,29.90,WSW,252,10.0,16.0,32,0.00,,,0.00,meteohub,2013-06-13 01:05:00,
2013-06-12 18:10:00,75.0,43.9,29.90,WNW,290,6.0,16.0,33,0.00,,,0.00,meteohub,2013-06-13 01:10:00,
2013-06-12 18:15:00,74.8,43.0,29.90,WSW,249,1.0,15.0,32,0.00,,,0.00,meteohub,2013-06-13 01:15:00,
2013-06-12 18:20:00,75.0,43.9,29.90,SW,220,3.0,14.0,33,0.00,,,0.00,meteohub,2013-06-13 01:20:00,
2013-06-12 18:25:00,74.8,43.9,29.90,SSW,212,5.0,14.0,33,0.00,,,0.00,meteohub,2013-06-13 01:25:00,
2013-06-12 18:30:00,74.5,43.5,29.90,SW,232,8.0,14.0,33,0.00,,,0.00,meteohub,2013-06-13 01:30:00,
2013-06-12 18:35:00,73.9,43.0,29.90,SSW,213,7.0,13.0,33,0.00,,,0.00,meteohub,2013-06-13 01:35:00,
2013-06-12 18:40:00,73.6,43.5,29.90,West,264,9.0,13.0,34,0.00,,,0.00,meteohub,2013-06-13 01:40:00,
2013-06-12 18:45:00,73.0,43.0,29.90,WNW,290,3.0,13.0,34,0.00,,,0.00,meteohub,2013-06-13 01:45:00,
2013-06-12 18:50:00,72.7,42.6,29.90,West,271,5.0,16.0,34,0.00,,,0.00,meteohub,2013-06-13 01:50:00,
2013-06-12 18:55:00,72.1,42.3,29.90,WSW,243,9.0,16.0,34,0.00,,,0.00,meteohub,2013-06-13 01:55:00,
2013-06-12 19:00:00,71.8,42.6,29.90,WSW,257,4.0,16.0,35,0.00,,,0.00,meteohub,2013-06-13 02:00:00,
2013-06-12 19:05:00,71.4,42.3,29.91,WSW,238,4.0,14.0,35,0.00,,,0.00,meteohub,2013-06-13 02:05:00,
2013-06-12 19:10:00,71.2,42.3,29.90,WSW,254,6.0,12.0,35,0.00,,,0.00,meteohub,2013-06-13 02:10:00,
2013-06-12 19:15:00,70.9,41.9,29.90,West,261,4.0,12.0,35,0.00,,,0.00,meteohub,2013-06-13 02:15:00,
2013-06-12 19:20:00,70.5,42.3,29.90,West,277,5.0,12.0,36,0.00,,,0.00,meteohub,2013-06-13 02:20:00,
2013-06-12 19:25:00,70.3,42.1,29.91,WNW,299,8.0,14.0,36,0.00,,,0.00,meteohub,2013-06-13 02:25:00,
2013-06-12 19:30:00,70.0,41.7,29.91,WNW,296,2.0,14.0,36,0.00,,,0.00,meteohub,2013-06-13 02:30:00,
2013-06-12 19:35:00,69.6,41.5,29.91,West,265,5.0,14.0,36,0.00,,,0.00,meteohub,2013-06-13 02:35:00,
2013-06-12 19:40:00,69.3,41.2,29.91,WNW,286,13.0,13.0,36,0.00,,,0.00,meteohub,2013-06-13 02:40:00,
2013-06-12 19:45:00,68.5,41.2,29.91,WSW,244,3.0,17.0,37,0.00,,,0.00,meteohub,2013-06-13 02:45:00,
2013-06-12 19:50:00,68.2,41.5,29.91,SW,222,12.0,17.0,38,0.00,,,0.00,meteohub,2013-06-13 02:50:00,
2013-06-12 19:55:00,67.6,41.2,29.91,WSW,244,3.0,17.0,38,0.00,,,0.00,meteohub,2013-06-13 02:55:00,
2013-06-12 20:00:00,67.5,41.7,29.91,WSW,238,1.0,12.0,39,0.00,,,0.00,meteohub,2013-06-13 03:00:00,
2013-06-12 20:05:00,67.1,41.4,29.91,West,261,4.0,12.0,39,0.00,,,0.00,meteohub,2013-06-13 03:05:00,
2013-06-12 20:10:00,66.6,40.8,29.91,WSW,244,1.0,10.0,39,0.00,,,0.00,meteohub,2013-06-13 03:10:00,
2013-06-12 20:15:00,66.0,41.0,29.91,WNW,284,3.0,8.0,40,0.00,,,0.00,meteohub,2013-06-13 03:15:00,
2013-06-12 20:20:00,65.7,41.4,29.91,NW,313,2.0,9.0,41,0.00,,,0.00,meteohub,2013-06-13 03:20:00,
2013-06-12 20:25:00,64.9,41.4,29.91,West,271,1.0,9.0,42,0.00,,,0.00,meteohub,2013-06-13 03:25:00,
2013-06-12 20:30:00,64.6,41.0,29.91,WNW,289,3.0,10.0,42,0.00,,,0.00,meteohub,2013-06-13 03:30:00,
2013-06-12 20:35:00,64.0,41.2,29.92,WNW,296,1.0,10.0,43,0.00,,,0.00,meteohub,2013-06-13 03:35:00,
2013-06-12 20:40:00,63.7,41.4,29.92,West,267,1.0,10.0,44,0.00,,,0.00,meteohub,2013-06-13 03:40:00,
2013-06-12 20:45:00,63.3,41.0,29.92,WNW,303,0.0,5.0,44,0.00,,,0.00,meteohub,2013-06-13 03:45:00,
2013-06-12 20:50:00,63.0,41.4,29.92,West,273,3.0,6.0,45,0.00,,,0.00,meteohub,2013-06-13 03:50:00,
2013-06-12 20:55:00,62.4,41.4,29.92,WSW,244,3.0,6.0,46,0.00,,,0.00,meteohub,2013-06-13 03:55:00,
2013-06-12 21:00:00,62.1,41.0,29.92,West,271,4.0,8.0,46,0.00,,,0.00,meteohub,2013-06-13 04:00:00,
2013-06-12 21:01:00,62.1,41.0,29.92,WSW,243,3.0,8.0,46,0.00,,,0.00,meteohub,2013-06-13 04:01:00,
2013-06-12 21:02:00,61.9,41.4,29.92,SW,219,7.0,8.0,47,0.00,,,0.00,meteohub,2013-06-13 04:02:00,
2013-06-12 21:07:00,61.5,41.2,29.92,WSW,240,4.0,9.0,47,0.00,,,0.00,meteohub,2013-06-13 04:07:00,
2013-06-12 21:12:00,61.3,41.5,29.92,West,261,4.0,10.0,48,0.00,,,0.00,meteohub,2013-06-13 04:12:00,
2013-06-12 21:17:00,61.3,41.5,29.93,SW,224,2.0,10.0,48,0.00,,,0.00,meteohub,2013-06-13 04:17:00,
2013-06-12 21:22:00,61.0,41.2,29.93,SSW,205,3.0,10.0,48,0.00,,,0.00,meteohub,2013-06-13 04:22:00,
2013-06-12 21:27:00,60.8,41.5,29.93,West,262,0.0,7.0,49,0.00,,,0.00,meteohub,2013-06-13 04:27:00,
2013-06-12 21:32:00,60.6,41.4,29.93,West,277,1.0,3.0,49,0.00,,,0.00,meteohub,2013-06-13 04:32:00,
2013-06-12 21:37:00,60.3,41.5,29.93,West,264,2.0,4.0,50,0.00,,,0.00,meteohub,2013-06-13 04:37:00,
2013-06-12 21:42:00,59.9,41.2,29.93,NW,305,1.0,7.0,50,0.00,,,0.00,meteohub,2013-06-13 04:42:00,
2013-06-12 21:47:00,59.7,41.5,29.94,WNW,293,0.0,7.0,51,0.00,,,0.00,meteohub,2013-06-13 04:47:00,
2013-06-12 21:52:00,59.5,41.4,29.93,North,351,1.0,7.0,51,0.00,,,0.00,meteohub,2013-06-13 04:52:00,
2013-06-12 21:57:00,59.4,41.2,29.94,NNW,336,0.0,6.0,51,0.00,,,0.00,meteohub,2013-06-13 04:57:00,
2013-06-12 22:02:00,59.2,41.5,29.94,NNW,328,0.0,2.0,52,0.00,,,0.00,meteohub,2013-06-13 05:02:00,
2013-06-12 22:07:00,58.8,41.2,29.94,NNW,333,1.0,4.0,52,0.00,,,0.00,meteohub,2013-06-13 05:07:00,
2013-06-12 22:12:00,58.5,41.4,29.94,WNW,302,1.0,4.0,53,0.00,,,0.00,meteohub,2013-06-13 05:12:00,
2013-06-12 22:17:00,58.3,41.7,29.94,NW,305,3.0,7.0,54,0.00,,,0.00,meteohub,2013-06-13 05:17:00,
2013-06-12 22:22:00,57.9,41.4,29.94,West,275,0.0,7.0,54,0.00,,,0.00,meteohub,2013-06-13 05:22:00,
2013-06-12 22:27:00,57.7,41.7,29.94,West,275,1.0,7.0,55,0.00,,,0.00,meteohub,2013-06-13 05:27:00,
2013-06-12 22:32:00,57.4,41.9,29.94,West,275,0.0,5.0,56,0.00,,,0.00,meteohub,2013-06-13 05:32:00,
2013-06-12 22:37:00,57.2,41.7,29.94,West,275,0.0,2.0,56,0.00,,,0.00,meteohub,2013-06-13 05:37:00,
2013-06-12 22:42:00,56.8,41.7,29.94,West,275,0.0,3.0,57,0.00,,,0.00,meteohub,2013-06-13 05:42:00,
2013-06-12 22:47:00,56.7,41.5,29.94,SW,228,0.0,3.0,57,0.00,,,0.00,meteohub,2013-06-13 05:47:00,
2013-06-12 22:52:00,56.1,41.5,29.94,WSW,244,0.0,5.0,58,0.00,,,0.00,meteohub,2013-06-13 05:52:00,
2013-06-12 22:57:00,55.9,41.9,29.94,WSW,244,0.0,5.0,59,0.00,,,0.00,meteohub,2013-06-13 05:57:00,
2013-06-12 23:02:00,55.8,41.7,29.94,North,5,0.0,5.0,59,0.00,,,0.00,meteohub,2013-06-13 06:02:00,
2013-06-12 23:07:00,55.6,41.9,29.94,North,5,0.0,3.0,60,0.00,,,0.00,meteohub,2013-06-13 06:07:00,
2013-06-12 23:12:00,55.4,41.7,29.94,WSW,242,0.0,3.0,60,0.00,,,0.00,meteohub,2013-06-13 06:12:00,
2013-06-12 23:17:00,55.2,41.5,29.93,WSW,242,0.0,3.0,60,0.00,,,0.00,meteohub,2013-06-13 06:17:00,
2013-06-12 23:22:00,55.0,41.9,29.94,WSW,243,3.0,3.0,61,0.00,,,0.00,meteohub,2013-06-13 06:22:00,
2013-06-12 23:27:00,54.7,41.9,29.93,North,5,1.0,7.0,62,0.00,,,0.00,meteohub,2013-06-13 06:27:00,
2013-06-12 23:32:00,54.5,42.1,29.94,North,350,0.0,7.0,63,0.00,,,0.00,meteohub,2013-06-13 06:32:00,
2013-06-12 23:37:00,54.1,41.9,29.94,North,350,0.0,7.0,63,0.00,,,0.00,meteohub,2013-06-13 06:37:00,
2013-06-12 23:42:00,54.0,41.7,29.94,South,172,2.0,5.0,63,0.00,,,0.00,meteohub,2013-06-13 06:42:00,
2013-06-12 23:47:00,53.8,41.5,29.94,South,172,0.0,2.0,63,0.00,,,0.00,meteohub,2013-06-13 06:47:00,
2013-06-12 23:52:00,53.6,41.7,29.94,South,172,0.0,2.0,64,0.00,,,0.00,meteohub,2013-06-13 06:52:00,
2013-06-12 23:57:00,53.4,41.9,29.94,South,172,0.0,2.0,65,0.00,,,0.00,meteohub,2013-06-13 06:57:00,